Time;durP1;ratioP1;P1;durP2;ratioP2;P2;SDS_P1;SDS_P2;PMS_P1;PMS_P2;Temp;Humidity;BMP_temperature;BMP_pressure;BME280_temperature;BME280_humidity;BME280_pressure;Samples;Min_cycle;Max_cycle;Signal;HPM_P1;HPM_P2
2022/09/16 00:00:44;;;;;;;6.47;2.50;;;18.40;99.90;;;;;;5012174;28;20177;-87
2022/09/16 00:03:11;;;;;;;4.43;2.53;;;18.40;99.90;;;;;;5010952;28;20549;-86
2022/09/16 00:05:45;;;;;;;3.43;2.73;;;18.40;99.90;;;;;;5011592;28;20178;-87
2022/09/16 00:08:12;;;;;;;4.30;2.43;;;18.50;99.90;;;;;;5019857;28;20267;-86
2022/09/16 00:10:38;;;;;;;2.87;2.60;;;18.50;99.90;;;;;;5016555;28;20165;-86
2022/09/16 00:13:04;;;;;;;2.97;2.77;;;18.50;99.90;;;;;;5012773;28;20637;-87
2022/09/16 00:15:30;;;;;;;4.33;3.00;;;18.40;99.90;;;;;;5011514;28;20177;-88
2022/09/16 00:17:56;;;;;;;3.87;2.40;;;18.40;99.90;;;;;;5011672;28;20181;-87
2022/09/16 00:20:21;;;;;;;4.73;2.80;;;18.40;99.90;;;;;;5011762;28;20533;-88
2022/09/16 00:22:47;;;;;;;3.00;2.70;;;18.40;99.90;;;;;;5012030;28;20177;-87
2022/09/16 00:25:13;;;;;;;2.83;2.20;;;18.50;99.90;;;;;;5011596;28;20200;-87
2022/09/16 00:27:38;;;;;;;3.30;2.90;;;18.50;99.90;;;;;;5010488;28;20180;-86
2022/09/16 00:30:05;;;;;;;5.87;3.17;;;18.50;99.90;;;;;;5011353;28;20784;-85
2022/09/16 00:32:30;;;;;;;3.20;2.90;;;18.40;99.90;;;;;;5021102;28;20177;-86
2022/09/16 00:34:56;;;;;;;7.17;3.13;;;18.40;99.90;;;;;;5036549;28;20190;-83
2022/09/16 00:37:22;;;;;;;4.90;2.67;;;18.40;99.90;;;;;;5030511;28;20509;-86
2022/09/16 00:39:48;;;;;;;2.97;2.67;;;18.40;99.90;;;;;;5011843;28;20224;-88
2022/09/16 00:42:15;;;;;;;4.23;3.13;;;18.40;99.90;;;;;;5011453;28;20177;-86
2022/09/16 00:45:00;;;;;;;3.47;2.50;;;18.40;99.90;;;;;;5010840;28;20538;-86
2022/09/16 00:47:26;;;;;;;3.47;2.50;;;18.40;99.90;;;;;;5011073;28;20173;-85
2022/09/16 00:49:55;;;;;;;2.50;2.30;;;18.30;99.90;;;;;;5010343;28;20180;-85
2022/09/16 00:52:22;;;;;;;4.90;2.63;;;18.40;99.90;;;;;;5011350;28;20555;-85
2022/09/16 00:54:48;;;;;;;2.87;2.30;;;18.40;99.90;;;;;;5009529;28;20557;-84
2022/09/16 00:57:14;;;;;;;4.50;2.70;;;18.30;99.90;;;;;;5010788;28;20238;-85
2022/09/16 00:59:44;;;;;;;4.60;3.00;;;18.30;99.90;;;;;;5010928;28;20239;-87
2022/09/16 01:02:16;;;;;;;5.07;2.70;;;18.30;99.90;;;;;;5010664;28;20256;-87
2022/09/16 01:04:55;;;;;;;2.90;2.60;;;18.30;99.90;;;;;;5010943;28;20660;-85
2022/09/16 01:07:44;;;;;;;4.80;2.40;;;18.20;99.90;;;;;;5010806;28;20173;-87
2022/09/16 01:10:11;;;;;;;6.50;2.40;;;18.30;99.90;;;;;;5009353;28;20180;-87
2022/09/16 01:12:39;;;;;;;4.73;3.03;;;18.20;99.90;;;;;;5009623;28;20221;-86
2022/09/16 01:15:05;;;;;;;4.53;2.53;;;18.20;99.90;;;;;;5010943;28;20177;-88
2022/09/16 01:18:20;;;;;;;4.80;2.90;;;18.20;99.90;;;;;;5010347;28;20545;-84
2022/09/16 01:20:52;;;;;;;3.77;2.63;;;18.10;99.90;;;;;;5009908;28;20197;-84
2022/09/16 01:23:39;;;;;;;2.63;2.43;;;18.10;99.90;;;;;;5011276;28;20200;-84
2022/09/16 01:26:33;;;;;;;3.73;2.43;;;18.10;99.90;;;;;;5011179;28;20228;-84
2022/09/16 01:29:20;;;;;;;5.30;2.53;;;18.10;99.90;;;;;;5009448;28;20200;-85
2022/09/16 01:32:27;;;;;;;7.03;2.93;;;18.10;99.90;;;;;;5011043;28;20166;-85
2022/09/16 01:35:10;;;;;;;3.83;2.10;;;18.00;99.90;;;;;;5008440;28;20260;-86
2022/09/16 01:37:42;;;;;;;4.50;2.33;;;18.00;99.90;;;;;;5010715;28;20211;-86
2022/09/16 01:40:38;;;;;;;2.57;2.37;;;18.00;99.90;;;;;;5008324;28;20232;-87
2022/09/16 01:43:15;;;;;;;3.30;2.20;;;18.00;99.90;;;;;;5008096;28;20232;-84
2022/09/16 01:45:56;;;;;;;2.43;2.20;;;18.00;99.90;;;;;;5007799;28;20185;-84
2022/09/16 01:48:47;;;;;;;2.60;2.40;;;18.00;99.90;;;;;;5007958;28;20169;-84
2022/09/16 01:51:21;;;;;;;6.03;2.50;;;18.00;99.90;;;;;;5007829;28;20174;-84
2022/09/16 01:54:11;;;;;;;4.20;2.20;;;18.10;99.90;;;;;;5000330;28;20249;-83
2022/09/16 01:56:55;;;;;;;7.53;2.20;;;18.10;99.90;;;;;;5007929;28;20169;-86
2022/09/16 01:59:30;;;;;;;3.57;2.13;;;18.10;99.90;;;;;;5007669;28;20259;-87
2022/09/16 02:02:10;;;;;;;3.93;2.40;;;18.10;99.90;;;;;;5012659;28;20194;-87
2022/09/16 02:04:42;;;;;;;4.03;2.27;;;18.10;99.90;;;;;;5008042;28;20239;-87
2022/09/16 02:07:11;;;;;;;5.20;2.07;;;18.10;99.90;;;;;;4971150;28;20166;-86
2022/09/16 02:09:44;;;;;;;5.40;2.27;;;18.00;99.90;;;;;;4971203;28;20308;-86
2022/09/16 02:12:17;;;;;;;3.10;2.43;;;17.90;99.90;;;;;;4969975;28;20571;-85
2022/09/16 02:14:45;;;;;;;2.33;2.10;;;17.90;99.90;;;;;;5000222;28;20174;-84
2022/09/16 02:17:19;;;;;;;5.33;2.40;;;17.90;99.90;;;;;;5015958;28;20190;-86
2022/09/16 02:20:04;;;;;;;3.63;2.17;;;17.90;99.90;;;;;;4993197;28;20202;-85
2022/09/16 02:22:50;;;;;;;2.17;2.07;;;17.90;99.90;;;;;;4989335;28;20224;-87
2022/09/16 02:25:18;;;;;;;2.80;2.20;;;18.00;99.90;;;;;;4990573;28;20158;-87
2022/09/16 02:27:45;;;;;;;7.70;2.30;;;18.00;99.90;;;;;;4990273;28;20170;-87
2022/09/16 02:30:16;;;;;;;2.03;1.90;;;17.90;99.90;;;;;;4990143;28;20173;-85
2022/09/16 02:32:47;;;;;;;2.80;2.10;;;18.00;99.90;;;;;;4990096;28;20209;-83
2022/09/16 02:35:16;;;;;;;3.63;2.20;;;18.10;99.90;;;;;;4989982;28;20177;-86
2022/09/16 02:37:51;;;;;;;3.90;2.30;;;18.10;99.90;;;;;;4988917;28;20194;-88
2022/09/16 02:40:25;;;;;;;4.27;2.07;;;18.00;99.90;;;;;;4990324;28;20636;-89
2022/09/16 02:42:51;;;;;;;2.43;2.23;;;18.10;99.90;;;;;;4991300;28;20170;-87
2022/09/16 02:45:19;;;;;;;1.93;1.83;;;18.00;99.90;;;;;;4990564;28;20197;-87
2022/09/16 02:47:51;;;;;;;2.37;2.20;;;18.00;99.90;;;;;;4990387;28;20646;-87
2022/09/16 02:50:45;;;;;;;3.17;2.23;;;18.00;99.90;;;;;;4992144;28;20162;-86
2022/09/16 02:53:14;;;;;;;4.37;1.97;;;18.10;99.90;;;;;;4995594;28;20309;-87
2022/09/16 02:56:01;;;;;;;5.53;2.10;;;18.10;99.90;;;;;;4993332;28;20185;-87
2022/09/16 02:58:28;;;;;;;2.93;1.77;;;18.10;99.90;;;;;;4993700;28;20296;-86
2022/09/16 03:00:55;;;;;;;3.17;2.00;;;18.20;99.90;;;;;;4993656;28;20236;-84
2022/09/16 03:03:21;;;;;;;1.93;1.90;;;18.20;99.90;;;;;;4993488;28;20631;-87
2022/09/16 03:06:15;;;;;;;2.23;2.03;;;18.20;99.90;;;;;;4993768;28;20229;-85
2022/09/16 03:08:43;;;;;;;5.83;2.30;;;18.10;99.90;;;;;;4993495;28;20185;-85
2022/09/16 03:11:42;;;;;;;2.13;2.03;;;18.00;99.90;;;;;;4993472;28;20166;-84
2022/09/16 03:14:23;;;;;;;2.60;2.00;;;17.90;99.90;;;;;;4993889;28;20802;-86
2022/09/16 03:17:16;;;;;;;5.67;2.10;;;18.00;99.90;;;;;;4994826;28;20182;-86
2022/09/16 03:19:51;;;;;;;4.40;2.20;;;18.00;99.90;;;;;;4994830;28;20213;-87
2022/09/16 03:22:42;;;;;;;2.20;2.10;;;18.00;99.90;;;;;;4993762;28;20166;-87
2022/09/16 03:25:11;;;;;;;2.10;1.90;;;18.00;99.90;;;;;;4973766;28;20167;-87
2022/09/16 03:27:56;;;;;;;2.63;1.80;;;18.00;99.90;;;;;;4976193;28;20178;-86
2022/09/16 03:30:21;;;;;;;2.57;2.03;;;18.00;99.90;;;;;;4974031;28;20904;-87
2022/09/16 03:32:59;;;;;;;2.17;1.97;;;18.10;99.90;;;;;;4974153;28;20170;-85
2022/09/16 03:35:33;;;;;;;4.67;2.00;;;18.10;99.90;;;;;;4974009;28;20174;-84
2022/09/16 03:38:01;;;;;;;6.33;2.10;;;18.10;99.90;;;;;;4973686;28;20225;-83
2022/09/16 03:40:29;;;;;;;2.00;1.90;;;18.10;99.90;;;;;;4993272;28;20174;-83
2022/09/16 03:42:56;;;;;;;2.83;2.17;;;18.10;99.90;;;;;;4992976;28;20174;-85
2022/09/16 03:45:22;;;;;;;2.03;1.90;;;18.00;99.90;;;;;;4992772;28;20637;-84
2022/09/16 03:47:50;;;;;;;2.10;1.93;;;18.00;99.90;;;;;;4992926;28;20178;-86
2022/09/16 03:50:17;;;;;;;2.20;2.10;;;18.00;99.90;;;;;;4992891;28;20178;-84
2022/09/16 03:52:42;;;;;;;4.30;2.10;;;18.10;99.90;;;;;;4993125;28;20648;-87
2022/09/16 03:55:09;;;;;;;3.67;2.00;;;18.10;99.90;;;;;;5011270;28;20174;-86
2022/09/16 03:57:36;;;;;;;1.90;1.80;;;18.20;99.90;;;;;;5020168;28;20166;-87
2022/09/16 04:00:04;;;;;;;2.00;1.80;;;18.20;99.90;;;;;;4999307;28;20241;-84
2022/09/16 04:02:30;;;;;;;2.40;2.30;;;18.10;99.90;;;;;;4992664;28;20180;-87
2022/09/16 04:04:55;;;;;;;4.47;2.13;;;18.20;99.90;;;;;;4992650;28;20184;-85
2022/09/16 04:07:21;;;;;;;1.97;1.87;;;18.20;99.90;;;;;;4992627;28;20173;-86
2022/09/16 04:09:47;;;;;;;2.53;2.20;;;18.20;99.90;;;;;;4992719;28;20178;-85
2022/09/16 04:12:13;;;;;;;2.60;2.00;;;18.20;99.90;;;;;;4992512;28;20178;-84
2022/09/16 04:14:38;;;;;;;3.20;2.13;;;18.20;99.90;;;;;;4992523;28;20177;-83
2022/09/16 04:17:04;;;;;;;5.40;2.07;;;18.00;99.90;;;;;;4992480;28;20174;-83
2022/09/16 04:19:30;;;;;;;4.13;2.10;;;17.90;99.90;;;;;;4992212;28;20213;-85
2022/09/16 04:21:56;;;;;;;2.27;2.10;;;17.90;99.90;;;;;;4992383;28;20252;-84
2022/09/16 04:24:22;;;;;;;4.13;2.63;;;17.90;99.90;;;;;;4992141;28;20213;-87
2022/09/16 04:26:47;;;;;;;2.30;2.00;;;17.90;99.90;;;;;;4992345;28;20174;-87
2022/09/16 04:29:13;;;;;;;4.53;2.20;;;17.80;99.90;;;;;;4992136;28;20181;-84
2022/09/16 04:31:39;;;;;;;1.90;1.80;;;17.90;99.90;;;;;;4992263;28;20910;-84
2022/09/16 04:34:05;;;;;;;4.20;2.20;;;17.90;99.90;;;;;;4992332;28;20182;-86
2022/09/16 04:36:31;;;;;;;2.03;1.93;;;17.90;99.90;;;;;;4994155;28;20433;-88
2022/09/16 04:38:57;;;;;;;4.33;2.20;;;17.90;99.90;;;;;;4994777;28;20260;-86
2022/09/16 04:41:25;;;;;;;2.17;2.03;;;17.90;99.90;;;;;;4993070;28;20182;-86
2022/09/16 04:43:56;;;;;;;2.50;2.40;;;17.90;99.90;;;;;;4991963;28;20232;-84
2022/09/16 04:46:26;;;;;;;3.03;1.97;;;17.90;99.90;;;;;;4991949;28;20181;-84
2022/09/16 04:48:54;;;;;;;2.87;2.13;;;17.90;99.90;;;;;;4992117;28;20221;-82
2022/09/16 04:51:27;;;;;;;4.93;2.20;;;17.60;99.90;;;;;;4991712;28;20607;-85
2022/09/16 04:53:54;;;;;;;2.90;2.60;;;17.40;99.90;;;;;;4992360;28;20198;-84
2022/09/16 04:56:26;;;;;;;4.70;2.10;;;17.20;99.90;;;;;;4991704;28;20775;-85
2022/09/16 04:58:54;;;;;;;2.10;2.00;;;17.10;99.90;;;;;;4991941;28;20239;-83
2022/09/16 05:01:24;;;;;;;2.47;2.30;;;17.10;99.90;;;;;;4991966;28;20182;-85
2022/09/16 05:03:52;;;;;;;2.47;2.20;;;16.90;99.90;;;;;;4991684;28;20185;-85
2022/09/16 05:06:25;;;;;;;3.17;2.50;;;16.80;99.90;;;;;;4991583;28;20244;-86
2022/09/16 05:08:52;;;;;;;3.43;2.40;;;16.80;99.90;;;;;;4991617;28;20177;-86
2022/09/16 05:11:21;;;;;;;3.10;2.80;;;16.70;99.90;;;;;;4993294;28;20180;-83
2022/09/16 05:13:47;;;;;;;2.50;2.30;;;16.70;99.90;;;;;;4995623;28;20179;-84
2022/09/16 05:16:22;;;;;;;7.17;2.53;;;16.70;99.90;;;;;;4991892;28;20177;-86
2022/09/16 05:18:50;;;;;;;2.87;2.30;;;16.70;99.90;;;;;;4991607;28;20209;-83
2022/09/16 05:21:18;;;;;;;9.80;2.47;;;16.70;99.90;;;;;;4991386;28;20664;-82
2022/09/16 05:23:45;;;;;;;2.93;2.37;;;16.70;99.90;;;;;;4991253;28;20174;-82
2022/09/16 05:26:15;;;;;;;2.30;2.20;;;16.70;99.90;;;;;;4991212;28;20224;-82
2022/09/16 05:28:42;;;;;;;2.97;2.73;;;16.80;99.90;;;;;;4991199;28;20255;-83
2022/09/16 05:31:10;;;;;;;3.37;2.57;;;16.80;99.90;;;;;;4991346;28;20162;-82
2022/09/16 05:33:40;;;;;;;3.17;2.23;;;16.80;99.90;;;;;;5010492;28;20186;-83
2022/09/16 05:36:08;;;;;;;3.73;2.17;;;16.90;99.90;;;;;;5014614;28;20170;-83
2022/09/16 05:38:34;;;;;;;2.40;2.20;;;16.90;99.90;;;;;;4997816;28;20236;-83
2022/09/16 05:41:01;;;;;;;2.50;2.20;;;16.90;99.90;;;;;;4993809;28;20173;-83
2022/09/16 05:43:27;;;;;;;2.47;2.30;;;17.10;99.90;;;;;;4991435;28;20249;-86
2022/09/16 05:45:54;;;;;;;2.50;2.30;;;16.90;99.90;;;;;;4992226;28;20269;-86
2022/09/16 05:48:24;;;;;;;2.60;2.37;;;16.90;99.90;;;;;;4991364;28;20784;-85
2022/09/16 05:50:55;;;;;;;2.30;2.20;;;16.90;99.90;;;;;;4990974;28;20547;-86
2022/09/16 05:53:22;;;;;;;2.83;2.50;;;16.80;99.90;;;;;;4990868;28;20173;-86
2022/09/16 05:55:59;;;;;;;2.70;2.50;;;16.80;99.90;;;;;;4989778;28;20193;-86
2022/09/16 05:58:26;;;;;;;10.47;3.70;;;16.80;99.90;;;;;;4990917;28;20206;-86
2022/09/16 06:00:58;;;;;;;8.80;2.97;;;16.90;99.90;;;;;;4991895;28;20241;-86
2022/09/16 06:03:25;;;;;;;2.70;2.50;;;16.90;99.90;;;;;;4991600;28;20158;-88
2022/09/16 06:05:58;;;;;;;2.80;2.13;;;17.00;99.90;;;;;;4991675;28;20180;-83
2022/09/16 06:08:23;;;;;;;2.50;2.30;;;17.10;99.90;;;;;;4991250;28;20161;-83
2022/09/16 06:10:49;;;;;;;2.50;2.30;;;17.20;99.90;;;;;;4991378;28;20641;-83
2022/09/16 06:13:15;;;;;;;2.93;2.53;;;17.20;99.90;;;;;;4990879;28;20638;-86
2022/09/16 06:15:49;;;;;;;2.47;2.17;;;17.20;99.90;;;;;;4989710;28;20185;-84
2022/09/16 06:18:17;;;;;;;2.97;2.77;;;17.20;99.90;;;;;;4990913;28;20165;-84
2022/09/16 06:20:44;;;;;;;3.93;2.70;;;17.20;99.90;;;;;;4991353;28;20184;-85
2022/09/16 06:23:09;;;;;;;2.50;2.30;;;17.20;99.90;;;;;;4991172;28;20174;-85
2022/09/16 06:25:35;;;;;;;4.50;2.60;;;17.20;99.90;;;;;;4992793;28;20176;-85
2022/09/16 06:28:02;;;;;;;5.83;2.87;;;17.20;99.90;;;;;;4994985;28;20227;-84
2022/09/16 06:30:28;;;;;;;3.97;2.63;;;17.20;99.90;;;;;;4994950;28;20174;-84
2022/09/16 06:32:54;;;;;;;2.77;2.57;;;17.20;99.90;;;;;;4994988;28;20182;-85
2022/09/16 06:35:20;;;;;;;2.57;2.47;;;17.30;99.90;;;;;;4993537;28;20224;-84
2022/09/16 06:37:45;;;;;;;4.73;3.10;;;17.30;99.90;;;;;;4994405;28;20201;-85
2022/09/16 06:40:11;;;;;;;3.00;2.80;;;17.30;99.90;;;;;;4994368;28;20299;-83
2022/09/16 06:42:37;;;;;;;3.30;3.00;;;17.30;99.90;;;;;;4994887;28;20170;-83
2022/09/16 06:45:04;;;;;;;3.30;3.10;;;17.30;99.90;;;;;;4995277;28;20189;-85
2022/09/16 06:47:33;;;;;;;4.03;2.93;;;17.30;99.90;;;;;;4996957;28;20172;-86
2022/09/16 06:49:59;;;;;;;3.07;2.87;;;17.40;99.90;;;;;;4999912;28;20207;-83
2022/09/16 06:52:26;;;;;;;3.00;2.83;;;17.40;99.90;;;;;;4999277;28;20248;-83
2022/09/16 06:54:52;;;;;;;4.20;3.10;;;17.40;99.90;;;;;;4982821;28;20580;-84
2022/09/16 06:57:19;;;;;;;3.30;3.10;;;17.30;99.90;;;;;;5008191;28;20178;-82
2022/09/16 06:59:45;;;;;;;3.00;2.80;;;17.30;99.90;;;;;;4998404;28;20219;-81
2022/09/16 07:02:11;;;;;;;3.27;2.97;;;17.30;99.90;;;;;;4998348;28;20931;-82
2022/09/16 07:04:37;;;;;;;3.10;2.80;;;17.40;99.90;;;;;;4996523;28;20209;-82
2022/09/16 07:07:03;;;;;;;2.90;2.70;;;17.40;99.90;;;;;;4998132;28;20170;-82
2022/09/16 07:09:31;;;;;;;3.37;3.03;;;17.40;99.90;;;;;;4998696;28;20285;-82
2022/09/16 07:11:58;;;;;;;2.90;2.70;;;17.40;99.90;;;;;;5018370;28;20150;-83
2022/09/16 07:14:25;;;;;;;3.40;3.17;;;17.40;99.90;;;;;;5012632;28;20178;-85
2022/09/16 07:16:51;;;;;;;3.67;3.47;;;17.50;99.90;;;;;;4999117;28;20162;-83
2022/09/16 07:19:17;;;;;;;3.70;3.40;;;17.40;99.90;;;;;;4998001;28;20208;-84
2022/09/16 07:21:43;;;;;;;3.93;3.30;;;17.40;99.90;;;;;;4996412;28;20194;-82
2022/09/16 07:24:12;;;;;;;3.83;2.83;;;17.20;99.90;;;;;;4995500;28;20232;-82
2022/09/16 07:26:39;;;;;;;3.00;2.90;;;17.30;99.90;;;;;;4995557;28;20201;-85
2022/09/16 07:29:06;;;;;;;3.87;3.00;;;17.30;99.90;;;;;;4995762;28;20213;-84
2022/09/16 07:31:34;;;;;;;4.53;3.13;;;17.30;99.90;;;;;;4995336;28;20264;-84
2022/09/16 07:34:02;;;;;;;3.07;2.77;;;17.40;99.90;;;;;;4994500;28;20170;-84
2022/09/16 07:36:30;;;;;;;2.83;2.73;;;17.30;99.90;;;;;;4993941;28;20622;-85
2022/09/16 07:38:57;;;;;;;6.83;2.80;;;17.40;99.90;;;;;;4998519;28;20292;-87
2022/09/16 07:41:26;;;;;;;2.60;2.50;;;17.40;99.90;;;;;;4997770;28;20265;-87
2022/09/16 07:43:57;;;;;;;2.90;2.70;;;17.40;99.90;;;;;;4999488;28;20177;-87
2022/09/16 07:46:25;;;;;;;3.30;3.10;;;17.40;99.90;;;;;;4997537;28;20200;-87
2022/09/16 07:48:51;;;;;;;3.37;3.00;;;17.40;99.90;;;;;;4993479;28;20189;-87
2022/09/16 07:51:20;;;;;;;3.37;3.17;;;17.40;99.90;;;;;;4993884;28;20170;-85
2022/09/16 07:53:47;;;;;;;3.03;2.93;;;17.50;99.90;;;;;;4993610;28;20177;-86
2022/09/16 07:56:16;;;;;;;4.37;3.40;;;17.60;99.90;;;;;;4992303;28;20185;-87
2022/09/16 07:58:44;;;;;;;3.37;3.13;;;17.50;99.90;;;;;;4992971;28;20508;-85
2022/09/16 08:01:11;;;;;;;3.80;3.47;;;17.50;99.90;;;;;;4993177;28;20261;-86
2022/09/16 08:03:38;;;;;;;3.70;3.40;;;17.60;99.90;;;;;;4992951;28;20253;-86
2022/09/16 08:06:09;;;;;;;3.67;3.47;;;17.60;99.90;;;;;;4993088;28;20620;-86
2022/09/16 08:08:35;;;;;;;3.70;3.40;;;17.50;99.90;;;;;;4993287;28;20170;-84
2022/09/16 08:11:02;;;;;;;3.53;3.33;;;17.50;99.90;;;;;;4993315;28;20205;-84
2022/09/16 08:13:30;;;;;;;3.33;3.17;;;17.50;99.90;;;;;;4991774;28;20205;-85
2022/09/16 08:16:18;;;;;;;3.57;3.30;;;17.30;99.90;;;;;;4993030;28;20217;-85
2022/09/16 08:18:47;;;;;;;3.70;3.50;;;17.40;99.90;;;;;;4992732;28;20211;-85
2022/09/16 08:21:31;;;;;;;4.20;3.80;;;17.30;99.90;;;;;;4993016;28;20174;-86
2022/09/16 08:23:57;;;;;;;4.90;3.70;;;17.40;99.90;;;;;;4992855;28;20162;-86
2022/09/16 08:26:23;;;;;;;4.07;3.80;;;17.40;99.90;;;;;;4992751;28;20325;-87
2022/09/16 08:28:49;;;;;;;4.00;3.60;;;17.30;99.90;;;;;;4992761;28;20181;-88
2022/09/16 08:31:16;;;;;;;4.43;4.03;;;17.40;99.90;;;;;;4992848;28;20241;-88
2022/09/16 08:33:43;;;;;;;7.10;4.00;;;17.40;99.90;;;;;;4992938;28;20182;-87
2022/09/16 08:36:19;;;;;;;4.33;4.00;;;17.30;99.90;;;;;;4992863;28;20645;-87
2022/09/16 08:38:45;;;;;;;3.93;3.60;;;17.30;99.90;;;;;;4992264;28;20241;-87
2022/09/16 08:41:17;;;;;;;4.73;4.33;;;17.20;99.90;;;;;;4992785;28;20182;-87
2022/09/16 08:43:53;;;;;;;3.90;3.60;;;17.20;99.90;;;;;;4993393;28;20488;-87
2022/09/16 08:46:50;;;;;;;3.83;3.50;;;17.20;99.90;;;;;;4996059;28;20158;-87
2022/09/16 08:49:31;;;;;;;4.23;3.83;;;17.10;99.90;;;;;;5016256;28;20174;-84
2022/09/16 08:51:59;;;;;;;4.33;3.97;;;17.10;99.90;;;;;;5013395;28;20166;-88
2022/09/16 08:54:37;;;;;;;4.03;3.73;;;17.20;99.90;;;;;;4998786;28;20479;-87
2022/09/16 08:57:05;;;;;;;4.13;3.90;;;17.20;99.90;;;;;;4992278;28;20165;-87
2022/09/16 08:59:45;;;;;;;5.63;4.20;;;17.20;99.90;;;;;;4992363;28;20677;-88
2022/09/16 09:02:35;;;;;;;4.63;3.97;;;17.20;99.90;;;;;;4990857;28;20181;-88
2022/09/16 09:05:02;;;;;;;3.83;3.57;;;17.20;99.90;;;;;;4992108;28;20184;-88
2022/09/16 09:07:51;;;;;;;4.63;3.90;;;17.20;99.90;;;;;;4990510;28;20177;-87
2022/09/16 09:10:41;;;;;;;8.47;4.07;;;17.20;99.90;;;;;;4991711;28;20651;-87
2022/09/16 09:13:09;;;;;;;3.63;3.33;;;17.30;99.90;;;;;;4991566;28;20170;-87
2022/09/16 09:15:42;;;;;;;5.50;5.03;;;17.30;99.90;;;;;;4991543;28;21046;-88
2022/09/16 09:18:32;;;;;;;4.03;3.77;;;17.50;99.90;;;;;;4991790;28;20232;-88
2022/09/16 09:21:15;;;;;;;4.03;3.63;;;17.60;99.90;;;;;;4990520;28;20556;-87
2022/09/16 09:24:12;;;;;;;3.53;3.20;;;17.40;99.90;;;;;;4993464;28;20249;-88
2022/09/16 09:26:50;;;;;;;3.37;3.27;;;17.40;99.90;;;;;;4992376;28;20253;-89
2022/09/16 09:29:40;;;;;;;3.17;3.00;;;17.30;99.90;;;;;;4991608;28;20166;-87
2022/09/16 09:32:28;;;;;;;3.37;3.10;;;17.30;99.90;;;;;;4991528;28;20174;-87
2022/09/16 09:35:00;;;;;;;3.63;3.33;;;17.30;99.90;;;;;;4991364;28;20181;-87
2022/09/16 09:37:34;;;;;;;3.30;3.10;;;17.30;99.90;;;;;;4991471;28;20181;-86
2022/09/16 09:40:18;;;;;;;3.37;3.10;;;17.30;99.90;;;;;;4989976;28;20233;-88
2022/09/16 09:42:55;;;;;;;2.97;2.87;;;17.30;99.90;;;;;;4990158;28;20180;-87
2022/09/16 09:45:57;;;;;;;3.17;3.07;;;17.20;99.90;;;;;;4991372;28;20244;-88
2022/09/16 09:48:37;;;;;;;3.30;3.20;;;17.30;99.90;;;;;;5011391;28;20698;-87
2022/09/16 09:51:20;;;;;;;3.20;3.10;;;17.30;99.90;;;;;;5028026;28;20187;-86
2022/09/16 09:53:51;;;;;;;2.93;2.83;;;17.30;99.90;;;;;;5027976;28;20211;-87
2022/09/16 09:56:30;;;;;;;3.10;2.80;;;17.20;99.90;;;;;;5027912;28;20168;-87
2022/09/16 09:59:34;;;;;;;2.90;2.80;;;17.10;99.90;;;;;;5027309;28;20242;-85
2022/09/16 10:02:00;;;;;;;3.83;2.40;;;17.10;99.90;;;;;;5028056;28;20176;-85
2022/09/16 10:04:37;;;;;;;2.83;2.60;;;17.00;99.90;;;;;;5027634;28;20203;-85
2022/09/16 10:07:04;;;;;;;3.13;2.90;;;17.00;99.90;;;;;;5027830;28;20218;-83
2022/09/16 10:09:32;;;;;;;3.10;2.90;;;17.00;99.90;;;;;;5028085;28;20172;-85
2022/09/16 10:11:59;;;;;;;2.80;2.70;;;16.90;99.90;;;;;;5027994;28;20180;-84
2022/09/16 10:14:36;;;;;;;2.90;2.73;;;16.80;99.90;;;;;;5027906;28;20172;-83
2022/09/16 10:17:14;;;;;;;2.50;2.40;;;16.80;99.90;;;;;;5027751;28;20185;-84
2022/09/16 10:20:00;;;;;;;2.93;2.83;;;16.80;99.90;;;;;;5027793;28;20216;-84
2022/09/16 10:22:31;;;;;;;3.13;3.03;;;16.70;99.90;;;;;;5035555;28;20204;-82
2022/09/16 10:25:00;;;;;;;3.00;2.87;;;16.70;99.90;;;;;;5018017;28;20202;-82
2022/09/16 10:27:34;;;;;;;3.80;2.90;;;16.60;99.90;;;;;;5001506;28;20259;-83
2022/09/16 10:30:20;;;;;;;3.17;2.50;;;16.50;99.90;;;;;;4991879;28;20513;-83
2022/09/16 10:33:04;;;;;;;2.90;2.60;;;16.50;99.90;;;;;;4990879;28;20177;-82
2022/09/16 10:35:33;;;;;;;3.20;2.97;;;16.40;99.90;;;;;;4990858;28;20162;-82
2022/09/16 10:38:04;;;;;;;3.10;2.90;;;16.40;99.90;;;;;;4990676;28;20252;-82
2022/09/16 10:40:31;;;;;;;3.13;2.83;;;16.30;99.90;;;;;;4992259;28;20205;-85
2022/09/16 10:43:05;;;;;;;3.00;2.80;;;16.30;99.90;;;;;;4993488;28;20176;-86
2022/09/16 10:45:45;;;;;;;2.40;2.30;;;16.20;99.90;;;;;;4995651;28;20154;-85
2022/09/16 10:48:16;;;;;;;2.53;2.33;;;16.30;99.90;;;;;;4993467;28;20181;-84
2022/09/16 10:50:55;;;;;;;2.50;2.30;;;16.30;99.90;;;;;;4991906;28;20195;-85
2022/09/16 10:53:33;;;;;;;3.30;3.10;;;16.30;99.90;;;;;;4992823;28;20248;-86
2022/09/16 10:56:04;;;;;;;3.23;3.03;;;16.30;99.90;;;;;;4991433;28;20181;-86
2022/09/16 10:58:30;;;;;;;3.00;2.83;;;16.20;99.90;;;;;;4989748;28;20213;-84
2022/09/16 11:01:29;;;;;;;3.10;3.00;;;16.30;99.90;;;;;;4990286;28;20190;-84
2022/09/16 11:04:25;;;;;;;3.77;3.57;;;16.30;99.90;;;;;;4990150;28;20204;-85
2022/09/16 11:06:56;;;;;;;3.80;3.50;;;16.40;99.90;;;;;;4988874;28;20168;-84
2022/09/16 11:09:34;;;;;;;3.80;3.60;;;16.30;99.90;;;;;;4990550;28;20162;-84
2022/09/16 11:12:38;;;;;;;3.47;3.17;;;16.40;99.90;;;;;;4991350;28;20208;-85
2022/09/16 11:15:28;;;;;;;3.67;3.47;;;16.50;99.90;;;;;;4994537;28;20679;-85
2022/09/16 11:18:09;;;;;;;3.63;3.43;;;16.60;99.90;;;;;;4994739;28;20188;-86
2022/09/16 11:20:52;;;;;;;4.73;3.60;;;16.60;99.90;;;;;;4993717;28;20928;-84
2022/09/16 11:23:24;;;;;;;4.23;3.83;;;16.70;99.90;;;;;;4993414;28;20187;-86
2022/09/16 11:26:16;;;;;;;4.00;3.80;;;16.80;99.90;;;;;;4993548;28;20174;-85
2022/09/16 11:28:42;;;;;;;4.07;3.87;;;16.90;99.90;;;;;;5011993;28;20184;-85
2022/09/16 11:31:42;;;;;;;3.80;3.60;;;16.90;99.90;;;;;;4993697;28;20235;-84
2022/09/16 11:34:42;;;;;;;3.97;3.60;;;17.00;99.90;;;;;;4993285;28;20735;-84
2022/09/16 11:37:34;;;;;;;3.43;3.27;;;17.00;99.90;;;;;;4993469;28;20164;-86
2022/09/16 11:40:32;;;;;;;3.80;3.60;;;17.00;99.90;;;;;;4993192;28;20226;-87
2022/09/16 11:43:28;;;;;;;3.97;3.67;;;17.10;99.90;;;;;;4992288;28;20209;-85
2022/09/16 11:46:12;;;;;;;3.70;3.50;;;17.20;99.90;;;;;;4993308;28;20193;-86
2022/09/16 11:48:51;;;;;;;4.00;3.53;;;17.10;99.90;;;;;;4991982;28;20228;-85
2022/09/16 11:51:35;;;;;;;3.40;3.20;;;17.10;99.90;;;;;;4991717;28;20187;-86
2022/09/16 11:54:56;;;;;;;3.57;3.27;;;17.00;99.90;;;;;;4993862;28;20260;-85
2022/09/16 11:57:29;;;;;;;3.73;3.50;;;17.00;99.90;;;;;;5008003;28;20209;-85
2022/09/16 12:00:02;;;;;;;3.67;3.47;;;17.00;99.90;;;;;;4995272;28;20265;-84
2022/09/16 12:03:00;;;;;;;3.97;3.67;;;16.90;99.90;;;;;;4998009;28;20253;-86
2022/09/16 12:05:33;;;;;;;4.43;3.60;;;16.90;99.90;;;;;;5015676;28;20217;-86
2022/09/16 12:08:05;;;;;;;4.37;3.90;;;16.80;99.90;;;;;;4996126;28;20154;-86
2022/09/16 12:10:42;;;;;;;3.50;3.20;;;16.80;99.90;;;;;;5000567;28;20161;-83
2022/09/16 12:13:14;;;;;;;3.90;3.70;;;16.70;99.90;;;;;;5004181;28;20170;-84
2022/09/16 12:15:50;;;;;;;3.73;3.43;;;16.60;99.90;;;;;;4994758;28;20187;-85
2022/09/16 12:18:31;;;;;;;3.47;3.13;;;16.70;99.90;;;;;;4992435;28;20174;-83
2022/09/16 12:21:12;;;;;;;3.50;3.30;;;16.60;99.90;;;;;;4992219;28;20177;-85
2022/09/16 12:23:43;;;;;;;3.23;3.03;;;16.60;99.90;;;;;;4992184;28;20523;-84
2022/09/16 12:26:12;;;;;;;4.00;3.50;;;16.60;99.90;;;;;;4992003;28;20180;-84
2022/09/16 12:28:50;;;;;;;3.80;3.50;;;16.60;99.90;;;;;;4992255;28;20926;-85
2022/09/16 12:31:28;;;;;;;3.60;3.40;;;16.60;99.90;;;;;;4992328;28;20768;-85
2022/09/16 12:34:17;;;;;;;3.87;3.60;;;16.60;99.90;;;;;;4992560;28;20189;-85
2022/09/16 12:36:48;;;;;;;3.87;3.57;;;16.60;99.90;;;;;;4992585;28;20248;-86
2022/09/16 12:39:14;;;;;;;3.83;3.60;;;16.60;99.90;;;;;;4992275;28;20293;-85
2022/09/16 12:41:58;;;;;;;3.60;3.40;;;16.60;99.90;;;;;;4993128;28;20628;-86
2022/09/16 12:44:59;;;;;;;3.30;3.10;;;16.70;99.90;;;;;;4992496;28;20181;-86
2022/09/16 12:47:54;;;;;;;3.90;3.50;;;16.70;99.90;;;;;;5029044;28;20179;-83
2022/09/16 12:50:45;;;;;;;3.40;3.20;;;16.90;99.90;;;;;;4992689;28;20198;-85
2022/09/16 12:53:45;;;;;;;3.20;3.00;;;16.90;99.90;;;;;;4992040;28;20178;-86
2022/09/16 12:56:41;;;;;;;3.23;3.03;;;17.10;99.90;;;;;;4992098;28;20165;-85
2022/09/16 12:59:25;;;;;;;3.40;3.20;;;17.10;99.90;;;;;;4992034;28;20590;-84
2022/09/16 13:02:19;;;;;;;3.50;3.30;;;17.10;99.90;;;;;;4991730;28;20180;-85
2022/09/16 13:04:52;;;;;;;3.40;3.20;;;17.20;99.90;;;;;;4992796;28;20730;-85
2022/09/16 13:07:27;;;;;;;3.40;3.20;;;17.20;99.90;;;;;;4991913;28;20166;-85
2022/09/16 13:10:27;;;;;;;3.03;2.90;;;17.20;99.90;;;;;;4991932;28;20694;-86
2022/09/16 13:12:55;;;;;;;3.17;3.00;;;17.10;99.90;;;;;;5005867;28;20191;-84
2022/09/16 13:15:23;;;;;;;3.30;3.10;;;17.00;99.90;;;;;;4991577;28;20646;-83
2022/09/16 13:17:52;;;;;;;3.10;2.90;;;16.90;99.90;;;;;;4991446;28;20177;-84
2022/09/16 13:20:24;;;;;;;3.03;2.93;;;17.00;99.90;;;;;;4991148;28;20209;-84
2022/09/16 13:23:04;;;;;;;3.20;3.00;;;16.90;99.90;;;;;;4991646;28;20162;-84